sensor_id;sensor_type;location;lat;lon;timestamp;temperature;humidity
33255;DHT22;19623;52.482;9.762;2023-03-23T00:01:01;12.50;99.90
33255;DHT22;19623;52.482;9.762;2023-03-23T00:03:28;12.40;99.90
33255;DHT22;19623;52.482;9.762;2023-03-23T00:05:55;12.50;99.90
33255;DHT22;19623;52.482;9.762;2023-03-23T00:08:25;12.60;99.90
33255;DHT22;19623;52.482;9.762;2023-03-23T00:10:52;12.70;99.90
33255;DHT22;19623;52.482;9.762;2023-03-23T00:13:25;12.60;99.90
33255;DHT22;19623;52.482;9.762;2023-03-23T00:15:51;12.70;99.90
33255;DHT22;19623;52.482;9.762;2023-03-23T00:18:20;12.60;99.90
33255;DHT22;19623;52.482;9.762;2023-03-23T00:20:49;12.40;99.90
33255;DHT22;19623;52.482;9.762;2023-03-23T00:23:16;12.40;99.90
33255;DHT22;19623;52.482;9.762;2023-03-23T00:25:50;12.30;99.90
33255;DHT22;19623;52.482;9.762;2023-03-23T00:28:19;12.30;99.90
33255;DHT22;19623;52.482;9.762;2023-03-23T00:30:54;12.20;99.90
33255;DHT22;19623;52.482;9.762;2023-03-23T00:33:22;12.20;99.90
33255;DHT22;19623;52.482;9.762;2023-03-23T00:35:49;12.20;99.90
33255;DHT22;19623;52.482;9.762;2023-03-23T00:38:18;12.20;99.90
33255;DHT22;19623;52.482;9.762;2023-03-23T00:40:45;12.10;99.90
33255;DHT22;19623;52.482;9.762;2023-03-23T00:43:15;12.00;99.90
33255;DHT22;19623;52.482;9.762;2023-03-23T00:45:42;12.00;99.90
33255;DHT22;19623;52.482;9.762;2023-03-23T00:48:10;12.00;99.90
33255;DHT22;19623;52.482;9.762;2023-03-23T00:50:38;11.90;99.90
33255;DHT22;19623;52.482;9.762;2023-03-23T00:53:04;11.90;99.90
33255;DHT22;19623;52.482;9.762;2023-03-23T00:55:29;11.80;99.90
33255;DHT22;19623;52.482;9.762;2023-03-23T00:57:56;11.80;99.90
33255;DHT22;19623;52.482;9.762;2023-03-23T01:00:22;11.80;99.90
33255;DHT22;19623;52.482;9.762;2023-03-23T01:02:48;11.80;99.90
33255;DHT22;19623;52.482;9.762;2023-03-23T01:05:17;11.80;99.90
33255;DHT22;19623;52.482;9.762;2023-03-23T01:07:42;11.80;99.90
33255;DHT22;19623;52.482;9.762;2023-03-23T01:10:10;11.80;99.90
33255;DHT22;19623;52.482;9.762;2023-03-23T01:12:38;11.80;99.90
33255;DHT22;19623;52.482;9.762;2023-03-23T01:15:05;11.80;99.90
33255;DHT22;19623;52.482;9.762;2023-03-23T01:17:31;11.80;99.90
33255;DHT22;19623;52.482;9.762;2023-03-23T01:19:57;11.90;99.90
33255;DHT22;19623;52.482;9.762;2023-03-23T01:22:22;11.80;99.90
33255;DHT22;19623;52.482;9.762;2023-03-23T01:24:48;11.80;99.90
33255;DHT22;19623;52.482;9.762;2023-03-23T01:27:13;11.70;99.90
33255;DHT22;19623;52.482;9.762;2023-03-23T01:29:39;11.70;99.90
33255;DHT22;19623;52.482;9.762;2023-03-23T01:32:05;11.80;99.90
33255;DHT22;19623;52.482;9.762;2023-03-23T01:34:31;11.80;99.90
33255;DHT22;19623;52.482;9.762;2023-03-23T01:36:56;11.80;99.90
33255;DHT22;19623;52.482;9.762;2023-03-23T01:39:22;11.80;99.90
33255;DHT22;19623;52.482;9.762;2023-03-23T01:41:48;11.80;99.90
33255;DHT22;19623;52.482;9.762;2023-03-23T01:46:43;11.70;99.90
33255;DHT22;19623;52.482;9.762;2023-03-23T01:49:15;11.70;99.90
33255;DHT22;19623;52.482;9.762;2023-03-23T01:51:50;11.70;99.90
33255;DHT22;19623;52.482;9.762;2023-03-23T01:54:19;11.70;99.90
33255;DHT22;19623;52.482;9.762;2023-03-23T01:57:00;11.70;99.90
33255;DHT22;19623;52.482;9.762;2023-03-23T01:59:27;11.60;99.90
33255;DHT22;19623;52.482;9.762;2023-03-23T02:01:54;11.60;99.90
33255;DHT22;19623;52.482;9.762;2023-03-23T02:04:23;11.60;99.90
33255;DHT22;19623;52.482;9.762;2023-03-23T02:06:51;11.60;99.90
33255;DHT22;19623;52.482;9.762;2023-03-23T02:09:18;11.60;99.90
33255;DHT22;19623;52.482;9.762;2023-03-23T02:11:44;11.60;99.90
33255;DHT22;19623;52.482;9.762;2023-03-23T02:14:11;11.60;99.90
33255;DHT22;19623;52.482;9.762;2023-03-23T02:22:22;11.70;99.90
33255;DHT22;19623;52.482;9.762;2023-03-23T02:30:59;11.60;99.90
33255;DHT22;19623;52.482;9.762;2023-03-23T02:39:26;11.70;99.90
33255;DHT22;19623;52.482;9.762;2023-03-23T02:41:38;11.70;99.90
33255;DHT22;19623;52.482;9.762;2023-03-23T02:44:06;11.70;99.90
33255;DHT22;19623;52.482;9.762;2023-03-23T02:46:34;11.80;99.90
33255;DHT22;19623;52.482;9.762;2023-03-23T02:49:02;11.70;99.90
33255;DHT22;19623;52.482;9.762;2023-03-23T02:51:29;11.60;99.90
33255;DHT22;19623;52.482;9.762;2023-03-23T02:53:56;11.60;99.90
33255;DHT22;19623;52.482;9.762;2023-03-23T02:56:25;11.60;99.90
33255;DHT22;19623;52.482;9.762;2023-03-23T02:58:53;11.50;99.90
33255;DHT22;19623;52.482;9.762;2023-03-23T03:03:52;11.60;99.90
33255;DHT22;19623;52.482;9.762;2023-03-23T03:09:19;11.60;99.90
33255;DHT22;19623;52.482;9.762;2023-03-23T03:11:53;11.60;99.90
33255;DHT22;19623;52.482;9.762;2023-03-23T03:14:27;11.50;99.90
33255;DHT22;19623;52.482;9.762;2023-03-23T03:17:09;11.50;99.90
33255;DHT22;19623;52.482;9.762;2023-03-23T03:19:37;11.60;99.90
33255;DHT22;19623;52.482;9.762;2023-03-23T03:22:04;11.50;99.90
33255;DHT22;19623;52.482;9.762;2023-03-23T03:24:31;11.50;99.90
33255;DHT22;19623;52.482;9.762;2023-03-23T03:26:59;11.50;99.90
33255;DHT22;19623;52.482;9.762;2023-03-23T03:29:32;11.50;99.90
33255;DHT22;19623;52.482;9.762;2023-03-23T03:31:58;11.50;99.90
33255;DHT22;19623;52.482;9.762;2023-03-23T03:34:25;11.60;99.90
33255;DHT22;19623;52.482;9.762;2023-03-23T03:36:53;11.50;99.90
33255;DHT22;19623;52.482;9.762;2023-03-23T03:39:20;11.50;99.90
33255;DHT22;19623;52.482;9.762;2023-03-23T03:41:46;11.40;99.90
33255;DHT22;19623;52.482;9.762;2023-03-23T03:44:12;11.40;99.90
33255;DHT22;19623;52.482;9.762;2023-03-23T03:46:38;11.40;99.90
33255;DHT22;19623;52.482;9.762;2023-03-23T03:49:06;11.40;99.90
33255;DHT22;19623;52.482;9.762;2023-03-23T03:51:32;11.40;99.90
33255;DHT22;19623;52.482;9.762;2023-03-23T03:53:58;11.40;99.90
33255;DHT22;19623;52.482;9.762;2023-03-23T03:56:24;11.40;99.90
33255;DHT22;19623;52.482;9.762;2023-03-23T03:58:51;11.30;99.90
33255;DHT22;19623;52.482;9.762;2023-03-23T04:01:19;11.40;99.90
33255;DHT22;19623;52.482;9.762;2023-03-23T04:03:46;11.40;99.90
33255;DHT22;19623;52.482;9.762;2023-03-23T04:06:12;11.40;99.90
33255;DHT22;19623;52.482;9.762;2023-03-23T04:08:38;11.40;99.90
33255;DHT22;19623;52.482;9.762;2023-03-23T04:11:09;11.50;99.90
33255;DHT22;19623;52.482;9.762;2023-03-23T04:13:36;11.50;99.90
33255;DHT22;19623;52.482;9.762;2023-03-23T04:16:01;11.50;99.90
33255;DHT22;19623;52.482;9.762;2023-03-23T04:18:27;11.50;99.90
33255;DHT22;19623;52.482;9.762;2023-03-23T04:20:53;11.50;99.90
33255;DHT22;19623;52.482;9.762;2023-03-23T04:23:25;11.50;99.90
33255;DHT22;19623;52.482;9.762;2023-03-23T04:25:52;11.60;99.90
33255;DHT22;19623;52.482;9.762;2023-03-23T04:28:22;11.60;99.90
33255;DHT22;19623;52.482;9.762;2023-03-23T04:30:50;11.60;99.90
33255;DHT22;19623;52.482;9.762;2023-03-23T04:33:28;11.60;99.90
33255;DHT22;19623;52.482;9.762;2023-03-23T04:35:58;11.60;99.90
33255;DHT22;19623;52.482;9.762;2023-03-23T04:38:26;11.50;99.90
33255;DHT22;19623;52.482;9.762;2023-03-23T04:40:53;11.50;99.90
33255;DHT22;19623;52.482;9.762;2023-03-23T04:43:21;11.60;99.90
33255;DHT22;19623;52.482;9.762;2023-03-23T04:45:55;11.70;99.90
33255;DHT22;19623;52.482;9.762;2023-03-23T04:48:26;11.70;99.90
33255;DHT22;19623;52.482;9.762;2023-03-23T04:50:52;11.60;99.90
33255;DHT22;19623;52.482;9.762;2023-03-23T04:53:18;11.60;99.90
33255;DHT22;19623;52.482;9.762;2023-03-23T04:55:46;11.40;99.90
33255;DHT22;19623;52.482;9.762;2023-03-23T04:58:13;11.50;99.90
33255;DHT22;19623;52.482;9.762;2023-03-23T05:00:41;11.50;99.90
33255;DHT22;19623;52.482;9.762;2023-03-23T05:03:09;11.60;99.90
33255;DHT22;19623;52.482;9.762;2023-03-23T05:05:35;11.60;99.90
33255;DHT22;19623;52.482;9.762;2023-03-23T05:08:02;11.60;99.90
33255;DHT22;19623;52.482;9.762;2023-03-23T05:10:27;11.70;99.90
33255;DHT22;19623;52.482;9.762;2023-03-23T05:12:54;11.60;99.90
33255;DHT22;19623;52.482;9.762;2023-03-23T05:15:20;11.50;99.90
33255;DHT22;19623;52.482;9.762;2023-03-23T05:17:46;11.40;99.90
33255;DHT22;19623;52.482;9.762;2023-03-23T05:20:15;11.40;99.90
33255;DHT22;19623;52.482;9.762;2023-03-23T05:22:43;11.30;99.90
33255;DHT22;19623;52.482;9.762;2023-03-23T05:25:10;11.30;99.90
33255;DHT22;19623;52.482;9.762;2023-03-23T05:27:37;11.30;99.90
33255;DHT22;19623;52.482;9.762;2023-03-23T05:30:04;11.20;99.90
33255;DHT22;19623;52.482;9.762;2023-03-23T05:32:31;11.20;99.90
33255;DHT22;19623;52.482;9.762;2023-03-23T05:35:01;11.20;99.90
33255;DHT22;19623;52.482;9.762;2023-03-23T05:37:28;11.20;99.90
33255;DHT22;19623;52.482;9.762;2023-03-23T05:39:59;11.30;99.90
33255;DHT22;19623;52.482;9.762;2023-03-23T05:42:31;11.40;99.90
33255;DHT22;19623;52.482;9.762;2023-03-23T05:44:58;11.40;99.90
33255;DHT22;19623;52.482;9.762;2023-03-23T05:47:24;11.50;99.90
33255;DHT22;19623;52.482;9.762;2023-03-23T05:49:51;11.60;99.90
33255;DHT22;19623;52.482;9.762;2023-03-23T05:52:18;11.60;99.90
33255;DHT22;19623;52.482;9.762;2023-03-23T05:54:44;11.60;99.90
33255;DHT22;19623;52.482;9.762;2023-03-23T05:57:10;11.50;99.90
33255;DHT22;19623;52.482;9.762;2023-03-23T05:59:36;11.60;99.90
33255;DHT22;19623;52.482;9.762;2023-03-23T06:02:03;11.60;99.90
33255;DHT22;19623;52.482;9.762;2023-03-23T06:04:32;11.70;99.90
33255;DHT22;19623;52.482;9.762;2023-03-23T06:07:00;11.70;99.90
33255;DHT22;19623;52.482;9.762;2023-03-23T06:09:26;11.70;99.90
33255;DHT22;19623;52.482;9.762;2023-03-23T06:11:52;11.70;99.90
33255;DHT22;19623;52.482;9.762;2023-03-23T06:14:18;11.80;99.90
33255;DHT22;19623;52.482;9.762;2023-03-23T06:16:44;11.90;99.90
33255;DHT22;19623;52.482;9.762;2023-03-23T06:19:10;11.90;99.90
33255;DHT22;19623;52.482;9.762;2023-03-23T06:21:37;11.90;99.90
33255;DHT22;19623;52.482;9.762;2023-03-23T06:24:02;12.00;99.90
33255;DHT22;19623;52.482;9.762;2023-03-23T06:26:32;12.00;99.90
33255;DHT22;19623;52.482;9.762;2023-03-23T06:28:58;12.00;99.90
33255;DHT22;19623;52.482;9.762;2023-03-23T06:31:25;11.90;99.90
33255;DHT22;19623;52.482;9.762;2023-03-23T06:33:51;11.90;99.90
33255;DHT22;19623;52.482;9.762;2023-03-23T06:36:17;11.90;99.90
33255;DHT22;19623;52.482;9.762;2023-03-23T06:38:43;12.00;99.90
33255;DHT22;19623;52.482;9.762;2023-03-23T06:41:08;12.00;99.90
33255;DHT22;19623;52.482;9.762;2023-03-23T06:43:34;12.00;99.90
33255;DHT22;19623;52.482;9.762;2023-03-23T06:46:03;12.10;99.90
33255;DHT22;19623;52.482;9.762;2023-03-23T06:48:29;12.20;99.90
33255;DHT22;19623;52.482;9.762;2023-03-23T06:50:55;12.20;99.90
33255;DHT22;19623;52.482;9.762;2023-03-23T06:53:20;12.20;99.90
33255;DHT22;19623;52.482;9.762;2023-03-23T06:55:46;12.30;99.90
33255;DHT22;19623;52.482;9.762;2023-03-23T06:58:12;12.30;99.90
33255;DHT22;19623;52.482;9.762;2023-03-23T07:00:38;12.40;99.90
33255;DHT22;19623;52.482;9.762;2023-03-23T07:03:06;12.40;99.90
33255;DHT22;19623;52.482;9.762;2023-03-23T07:05:33;12.40;99.90
33255;DHT22;19623;52.482;9.762;2023-03-23T07:07:58;12.50;99.90
33255;DHT22;19623;52.482;9.762;2023-03-23T07:10:24;12.60;99.90
33255;DHT22;19623;52.482;9.762;2023-03-23T07:12:50;12.70;99.90
33255;DHT22;19623;52.482;9.762;2023-03-23T07:15:16;12.70;99.90
33255;DHT22;19623;52.482;9.762;2023-03-23T07:17:42;12.80;99.90
33255;DHT22;19623;52.482;9.762;2023-03-23T07:20:08;12.80;99.90
33255;DHT22;19623;52.482;9.762;2023-03-23T07:22:34;12.80;99.90
33255;DHT22;19623;52.482;9.762;2023-03-23T07:25:00;12.90;99.90
33255;DHT22;19623;52.482;9.762;2023-03-23T07:27:26;12.90;99.90
33255;DHT22;19623;52.482;9.762;2023-03-23T07:29:53;13.00;99.90
33255;DHT22;19623;52.482;9.762;2023-03-23T07:32:18;13.10;99.90
33255;DHT22;19623;52.482;9.762;2023-03-23T07:34:44;13.20;99.90
33255;DHT22;19623;52.482;9.762;2023-03-23T07:37:10;13.30;99.90
33255;DHT22;19623;52.482;9.762;2023-03-23T07:39:36;13.30;99.90
33255;DHT22;19623;52.482;9.762;2023-03-23T07:42:03;13.30;99.90
33255;DHT22;19623;52.482;9.762;2023-03-23T07:44:29;13.30;99.90
33255;DHT22;19623;52.482;9.762;2023-03-23T07:46:54;13.40;99.90
33255;DHT22;19623;52.482;9.762;2023-03-23T07:49:20;13.50;99.90
33255;DHT22;19623;52.482;9.762;2023-03-23T07:51:46;13.50;99.90
33255;DHT22;19623;52.482;9.762;2023-03-23T07:54:12;13.60;99.90
33255;DHT22;19623;52.482;9.762;2023-03-23T07:56:39;13.70;99.90
33255;DHT22;19623;52.482;9.762;2023-03-23T07:59:06;13.70;99.90
33255;DHT22;19623;52.482;9.762;2023-03-23T08:01:32;13.90;99.90
33255;DHT22;19623;52.482;9.762;2023-03-23T08:03:58;14.00;99.90
33255;DHT22;19623;52.482;9.762;2023-03-23T08:06:26;14.10;99.90
33255;DHT22;19623;52.482;9.762;2023-03-23T08:08:52;14.10;99.90
33255;DHT22;19623;52.482;9.762;2023-03-23T08:11:19;14.20;99.90
33255;DHT22;19623;52.482;9.762;2023-03-23T08:13:45;14.30;99.90
33255;DHT22;19623;52.482;9.762;2023-03-23T08:16:11;14.50;99.90
33255;DHT22;19623;52.482;9.762;2023-03-23T08:18:38;14.60;99.90
33255;DHT22;19623;52.482;9.762;2023-03-23T08:21:05;14.60;99.90
33255;DHT22;19623;52.482;9.762;2023-03-23T08:23:31;14.60;99.90
33255;DHT22;19623;52.482;9.762;2023-03-23T08:25:59;14.60;99.90
33255;DHT22;19623;52.482;9.762;2023-03-23T08:28:26;14.60;99.90
33255;DHT22;19623;52.482;9.762;2023-03-23T08:30:51;14.70;99.90
33255;DHT22;19623;52.482;9.762;2023-03-23T08:33:18;14.80;99.90
33255;DHT22;19623;52.482;9.762;2023-03-23T08:35:44;14.80;99.90
33255;DHT22;19623;52.482;9.762;2023-03-23T08:38:10;14.80;99.90
33255;DHT22;19623;52.482;9.762;2023-03-23T08:40:37;14.70;99.90
33255;DHT22;19623;52.482;9.762;2023-03-23T08:43:04;14.80;99.90
33255;DHT22;19623;52.482;9.762;2023-03-23T08:45:30;14.70;99.90
33255;DHT22;19623;52.482;9.762;2023-03-23T08:47:56;14.90;99.90
33255;DHT22;19623;52.482;9.762;2023-03-23T08:50:25;14.80;99.90
33255;DHT22;19623;52.482;9.762;2023-03-23T08:52:51;14.90;99.90
33255;DHT22;19623;52.482;9.762;2023-03-23T08:55:19;14.80;99.90
33255;DHT22;19623;52.482;9.762;2023-03-23T08:57:45;14.80;99.90
33255;DHT22;19623;52.482;9.762;2023-03-23T09:00:14;14.70;99.90
33255;DHT22;19623;52.482;9.762;2023-03-23T09:02:49;14.70;99.90
33255;DHT22;19623;52.482;9.762;2023-03-23T09:05:17;14.70;99.90
33255;DHT22;19623;52.482;9.762;2023-03-23T09:07:46;14.60;99.90
33255;DHT22;19623;52.482;9.762;2023-03-23T09:10:13;14.50;99.90
33255;DHT22;19623;52.482;9.762;2023-03-23T09:12:41;14.50;99.90
33255;DHT22;19623;52.482;9.762;2023-03-23T09:15:08;14.60;99.90
33255;DHT22;19623;52.482;9.762;2023-03-23T09:17:40;14.60;99.90
33255;DHT22;19623;52.482;9.762;2023-03-23T09:20:08;14.60;99.90
33255;DHT22;19623;52.482;9.762;2023-03-23T09:22:43;14.60;99.90
33255;DHT22;19623;52.482;9.762;2023-03-23T09:25:11;14.50;99.90
33255;DHT22;19623;52.482;9.762;2023-03-23T09:27:38;14.60;99.90
33255;DHT22;19623;52.482;9.762;2023-03-23T09:30:09;14.60;99.90
33255;DHT22;19623;52.482;9.762;2023-03-23T09:32:35;14.60;99.90
33255;DHT22;19623;52.482;9.762;2023-03-23T09:35:02;14.60;99.90
33255;DHT22;19623;52.482;9.762;2023-03-23T09:37:29;14.60;99.90
33255;DHT22;19623;52.482;9.762;2023-03-23T09:39:55;14.60;99.90
33255;DHT22;19623;52.482;9.762;2023-03-23T09:50:18;14.80;99.90
33255;DHT22;19623;52.482;9.762;2023-03-23T09:53:05;15.00;99.90
33255;DHT22;19623;52.482;9.762;2023-03-23T09:55:35;15.10;99.90
33255;DHT22;19623;52.482;9.762;2023-03-23T09:58:37;15.10;99.90
33255;DHT22;19623;52.482;9.762;2023-03-23T10:01:29;15.10;99.90
33255;DHT22;19623;52.482;9.762;2023-03-23T10:04:01;15.00;99.90
33255;DHT22;19623;52.482;9.762;2023-03-23T10:06:27;14.90;99.90
33255;DHT22;19623;52.482;9.762;2023-03-23T10:08:56;14.80;99.90
33255;DHT22;19623;52.482;9.762;2023-03-23T10:17:14;14.70;99.90
33255;DHT22;19623;52.482;9.762;2023-03-23T10:19:50;14.60;99.90
33255;DHT22;19623;52.482;9.762;2023-03-23T10:22:32;14.60;99.90
33255;DHT22;19623;52.482;9.762;2023-03-23T10:25:19;14.60;99.90
33255;DHT22;19623;52.482;9.762;2023-03-23T10:28:17;14.70;99.90
33255;DHT22;19623;52.482;9.762;2023-03-23T10:30:56;14.70;99.90
33255;DHT22;19623;52.482;9.762;2023-03-23T10:33:37;14.80;99.90
33255;DHT22;19623;52.482;9.762;2023-03-23T10:36:30;14.90;99.90
33255;DHT22;19623;52.482;9.762;2023-03-23T10:39:12;15.00;99.90
33255;DHT22;19623;52.482;9.762;2023-03-23T10:44:33;15.30;99.90
33255;DHT22;19623;52.482;9.762;2023-03-23T10:47:05;15.40;99.90
33255;DHT22;19623;52.482;9.762;2023-03-23T10:49:59;15.40;99.90
33255;DHT22;19623;52.482;9.762;2023-03-23T10:52:51;15.30;99.90
33255;DHT22;19623;52.482;9.762;2023-03-23T10:55:20;15.40;99.90
33255;DHT22;19623;52.482;9.762;2023-03-23T10:58:10;15.60;99.90
33255;DHT22;19623;52.482;9.762;2023-03-23T11:00:44;15.80;99.90
33255;DHT22;19623;52.482;9.762;2023-03-23T11:06:02;16.50;99.90
33255;DHT22;19623;52.482;9.762;2023-03-23T11:08:35;16.80;99.90
33255;DHT22;19623;52.482;9.762;2023-03-23T11:11:11;17.10;99.90
33255;DHT22;19623;52.482;9.762;2023-03-23T11:13:46;17.30;99.90
33255;DHT22;19623;52.482;9.762;2023-03-23T11:18:50;17.50;99.90
33255;DHT22;19623;52.482;9.762;2023-03-23T11:21:19;17.50;99.90
33255;DHT22;19623;52.482;9.762;2023-03-23T11:23:54;17.40;99.90
33255;DHT22;19623;52.482;9.762;2023-03-23T11:26:30;17.20;99.90
33255;DHT22;19623;52.482;9.762;2023-03-23T11:31:32;16.70;99.90
33255;DHT22;19623;52.482;9.762;2023-03-23T11:34:01;16.50;99.90
33255;DHT22;19623;52.482;9.762;2023-03-23T11:36:32;16.30;99.90
33255;DHT22;19623;52.482;9.762;2023-03-23T11:39:03;16.30;99.90
33255;DHT22;19623;52.482;9.762;2023-03-23T11:41:52;16.30;99.90
33255;DHT22;19623;52.482;9.762;2023-03-23T11:44:34;16.20;99.90
33255;DHT22;19623;52.482;9.762;2023-03-23T11:53:52;15.80;99.90
33255;DHT22;19623;52.482;9.762;2023-03-23T11:58:47;14.90;99.90
33255;DHT22;19623;52.482;9.762;2023-03-23T12:01:26;14.30;99.90
33255;DHT22;19623;52.482;9.762;2023-03-23T12:15:29;12.60;99.90
33255;DHT22;19623;52.482;9.762;2023-03-23T12:18:12;12.20;99.90
33255;DHT22;19623;52.482;9.762;2023-03-23T12:21:21;12.00;99.90
33255;DHT22;19623;52.482;9.762;2023-03-23T12:26:32;12.20;99.90
33255;DHT22;19623;52.482;9.762;2023-03-23T12:40:51;12.60;99.90
33255;DHT22;19623;52.482;9.762;2023-03-23T12:46:42;12.50;99.90
33255;DHT22;19623;52.482;9.762;2023-03-23T12:49:24;12.40;99.90
33255;DHT22;19623;52.482;9.762;2023-03-23T12:52:24;12.50;99.90
33255;DHT22;19623;52.482;9.762;2023-03-23T12:58:03;12.60;99.90
33255;DHT22;19623;52.482;9.762;2023-03-23T13:00:56;12.70;99.90
33255;DHT22;19623;52.482;9.762;2023-03-23T13:06:07;12.90;99.90
33255;DHT22;19623;52.482;9.762;2023-03-23T13:08:47;12.90;99.90
33255;DHT22;19623;52.482;9.762;2023-03-23T13:11:28;12.90;99.90
33255;DHT22;19623;52.482;9.762;2023-03-23T13:17:03;13.00;99.90
33255;DHT22;19623;52.482;9.762;2023-03-23T13:23:02;13.10;99.90
33255;DHT22;19623;52.482;9.762;2023-03-23T13:31:17;12.80;99.90
33255;DHT22;19623;52.482;9.762;2023-03-23T13:33:52;12.70;99.90
33255;DHT22;19623;52.482;9.762;2023-03-23T13:37:03;12.60;99.90
33255;DHT22;19623;52.482;9.762;2023-03-23T13:42:23;12.60;99.90
33255;DHT22;19623;52.482;9.762;2023-03-23T13:45:18;12.60;99.90
33255;DHT22;19623;52.482;9.762;2023-03-23T13:47:45;12.70;99.90
33255;DHT22;19623;52.482;9.762;2023-03-23T13:50:42;12.60;99.90
33255;DHT22;19623;52.482;9.762;2023-03-23T13:53:26;12.80;99.90
33255;DHT22;19623;52.482;9.762;2023-03-23T13:56:35;12.90;99.90
33255;DHT22;19623;52.482;9.762;2023-03-23T13:59:16;12.90;99.90
33255;DHT22;19623;52.482;9.762;2023-03-23T14:01:42;12.90;99.90
33255;DHT22;19623;52.482;9.762;2023-03-23T14:04:17;13.00;99.90
33255;DHT22;19623;52.482;9.762;2023-03-23T14:06:44;13.20;99.90
33255;DHT22;19623;52.482;9.762;2023-03-23T14:09:30;13.30;99.90
33255;DHT22;19623;52.482;9.762;2023-03-23T14:12:18;13.50;99.90
33255;DHT22;19623;52.482;9.762;2023-03-23T14:14:48;13.70;99.90
33255;DHT22;19623;52.482;9.762;2023-03-23T14:17:25;13.70;99.90
33255;DHT22;19623;52.482;9.762;2023-03-23T14:19:56;13.80;99.90
33255;DHT22;19623;52.482;9.762;2023-03-23T14:24:49;14.00;99.90
33255;DHT22;19623;52.482;9.762;2023-03-23T14:27:19;14.10;99.90
33255;DHT22;19623;52.482;9.762;2023-03-23T14:29:45;14.20;99.90
33255;DHT22;19623;52.482;9.762;2023-03-23T14:32:20;14.20;99.90
33255;DHT22;19623;52.482;9.762;2023-03-23T14:34:52;14.20;99.90
33255;DHT22;19623;52.482;9.762;2023-03-23T14:37:18;14.30;99.90
33255;DHT22;19623;52.482;9.762;2023-03-23T14:39:46;14.30;99.90
33255;DHT22;19623;52.482;9.762;2023-03-23T14:42:16;14.30;99.90
33255;DHT22;19623;52.482;9.762;2023-03-23T14:44:49;14.40;99.90
33255;DHT22;19623;52.482;9.762;2023-03-23T14:47:32;14.30;99.90
33255;DHT22;19623;52.482;9.762;2023-03-23T14:50:00;14.30;99.90
33255;DHT22;19623;52.482;9.762;2023-03-23T14:52:29;14.30;99.90
33255;DHT22;19623;52.482;9.762;2023-03-23T14:55:14;14.40;99.90
33255;DHT22;19623;52.482;9.762;2023-03-23T14:57:41;14.50;99.90
33255;DHT22;19623;52.482;9.762;2023-03-23T15:00:16;14.50;99.90
33255;DHT22;19623;52.482;9.762;2023-03-23T15:02:49;14.40;99.90
33255;DHT22;19623;52.482;9.762;2023-03-23T15:05:44;14.30;99.90
33255;DHT22;19623;52.482;9.762;2023-03-23T15:08:32;14.30;99.90
33255;DHT22;19623;52.482;9.762;2023-03-23T15:13:58;14.20;99.90
33255;DHT22;19623;52.482;9.762;2023-03-23T15:16:31;14.20;99.90
33255;DHT22;19623;52.482;9.762;2023-03-23T15:19:01;14.20;99.90
33255;DHT22;19623;52.482;9.762;2023-03-23T15:21:48;14.20;99.90
33255;DHT22;19623;52.482;9.762;2023-03-23T15:26:49;14.30;99.90
33255;DHT22;19623;52.482;9.762;2023-03-23T15:29:19;14.40;99.90
33255;DHT22;19623;52.482;9.762;2023-03-23T15:31:50;14.40;99.90
33255;DHT22;19623;52.482;9.762;2023-03-23T15:34:28;14.50;99.90
33255;DHT22;19623;52.482;9.762;2023-03-23T15:37:02;14.50;99.90
33255;DHT22;19623;52.482;9.762;2023-03-23T15:39:30;14.50;99.90
33255;DHT22;19623;52.482;9.762;2023-03-23T15:41:58;14.30;99.90
33255;DHT22;19623;52.482;9.762;2023-03-23T15:44:30;14.30;99.90
33255;DHT22;19623;52.482;9.762;2023-03-23T15:47:18;14.30;99.90
33255;DHT22;19623;52.482;9.762;2023-03-23T15:49:45;14.30;99.90
33255;DHT22;19623;52.482;9.762;2023-03-23T15:52:13;14.30;99.90
33255;DHT22;19623;52.482;9.762;2023-03-23T15:54:46;14.30;99.90
33255;DHT22;19623;52.482;9.762;2023-03-23T15:57:12;14.50;99.90
33255;DHT22;19623;52.482;9.762;2023-03-23T15:59:38;14.50;99.90
33255;DHT22;19623;52.482;9.762;2023-03-23T16:02:03;14.40;99.90
33255;DHT22;19623;52.482;9.762;2023-03-23T16:04:29;14.30;99.90
33255;DHT22;19623;52.482;9.762;2023-03-23T16:06:57;14.20;99.90
33255;DHT22;19623;52.482;9.762;2023-03-23T16:09:23;14.00;99.90
33255;DHT22;19623;52.482;9.762;2023-03-23T16:11:50;13.90;99.90
33255;DHT22;19623;52.482;9.762;2023-03-23T16:14:15;13.80;99.90
33255;DHT22;19623;52.482;9.762;2023-03-23T16:16:45;13.70;99.90
33255;DHT22;19623;52.482;9.762;2023-03-23T16:19:13;13.70;99.90
33255;DHT22;19623;52.482;9.762;2023-03-23T16:21:39;13.60;99.90
33255;DHT22;19623;52.482;9.762;2023-03-23T16:24:05;13.50;99.90
33255;DHT22;19623;52.482;9.762;2023-03-23T16:26:31;13.60;99.90
33255;DHT22;19623;52.482;9.762;2023-03-23T16:28:57;13.50;99.90
33255;DHT22;19623;52.482;9.762;2023-03-23T16:31:23;13.30;99.90
33255;DHT22;19623;52.482;9.762;2023-03-23T16:33:50;13.30;99.90
33255;DHT22;19623;52.482;9.762;2023-03-23T16:36:16;13.20;99.90
33255;DHT22;19623;52.482;9.762;2023-03-23T16:38:41;13.20;99.90
33255;DHT22;19623;52.482;9.762;2023-03-23T16:41:08;13.10;99.90
33255;DHT22;19623;52.482;9.762;2023-03-23T16:43:34;13.00;99.90
33255;DHT22;19623;52.482;9.762;2023-03-23T16:46:00;12.90;99.90
33255;DHT22;19623;52.482;9.762;2023-03-23T16:48:26;12.90;99.90
33255;DHT22;19623;52.482;9.762;2023-03-23T16:50:52;12.80;99.90
33255;DHT22;19623;52.482;9.762;2023-03-23T16:53:19;12.80;99.90
33255;DHT22;19623;52.482;9.762;2023-03-23T16:55:45;12.70;99.90
33255;DHT22;19623;52.482;9.762;2023-03-23T16:58:13;12.70;99.90
33255;DHT22;19623;52.482;9.762;2023-03-23T17:00:40;12.60;99.90
33255;DHT22;19623;52.482;9.762;2023-03-23T17:03:06;12.50;99.90
33255;DHT22;19623;52.482;9.762;2023-03-23T17:05:32;12.50;99.90
33255;DHT22;19623;52.482;9.762;2023-03-23T17:07:59;12.50;99.90
33255;DHT22;19623;52.482;9.762;2023-03-23T17:10:27;12.40;99.90
33255;DHT22;19623;52.482;9.762;2023-03-23T17:12:54;12.30;99.90
33255;DHT22;19623;52.482;9.762;2023-03-23T17:15:20;12.10;99.90
33255;DHT22;19623;52.482;9.762;2023-03-23T17:17:46;12.10;99.90
33255;DHT22;19623;52.482;9.762;2023-03-23T17:20:12;12.20;99.90
33255;DHT22;19623;52.482;9.762;2023-03-23T17:22:39;12.20;99.90
33255;DHT22;19623;52.482;9.762;2023-03-23T17:25:06;12.20;99.90
33255;DHT22;19623;52.482;9.762;2023-03-23T17:27:33;12.20;99.90
33255;DHT22;19623;52.482;9.762;2023-03-23T17:29:59;12.20;99.90
33255;DHT22;19623;52.482;9.762;2023-03-23T17:32:24;12.30;99.90
33255;DHT22;19623;52.482;9.762;2023-03-23T17:34:51;12.30;99.90
33255;DHT22;19623;52.482;9.762;2023-03-23T17:37:19;12.40;99.90
33255;DHT22;19623;52.482;9.762;2023-03-23T17:39:44;12.40;99.90
33255;DHT22;19623;52.482;9.762;2023-03-23T17:42:12;12.40;99.90
33255;DHT22;19623;52.482;9.762;2023-03-23T17:44:37;12.40;99.90